createdAt,value
2018-09-15T00:00:24.426Z,90.40
2018-09-15T00:03:55.646Z,90.00
2018-09-15T00:06:23.872Z,89.20
2018-09-15T00:08:52.079Z,90.10
2018-09-15T00:11:20.404Z,90.10
2018-09-15T00:13:48.595Z,88.80
2018-09-15T00:16:16.795Z,88.20
2018-09-15T00:18:44.999Z,88.00
2018-09-15T00:21:13.278Z,88.80
2018-09-15T00:23:41.653Z,88.80
2018-09-15T00:26:09.912Z,89.60
2018-09-15T00:28:38.210Z,89.90
2018-09-15T00:31:06.403Z,90.00
2018-09-15T00:33:34.596Z,90.10
2018-09-15T00:36:02.822Z,89.20
2018-09-15T00:38:31.183Z,89.30
2018-09-15T00:40:59.368Z,89.60
2018-09-15T00:43:27.534Z,90.10
2018-09-15T00:45:55.720Z,90.70
2018-09-15T00:50:51.990Z,90.80
2018-09-15T00:53:20.186Z,91.20
2018-09-15T00:55:48.426Z,90.90
2018-09-15T00:58:16.602Z,91.10
2018-09-15T01:00:44.886Z,91.30
2018-09-15T01:03:13.143Z,91.70
2018-09-15T01:05:41.344Z,92.20
2018-09-15T01:08:09.539Z,93.30
2018-09-15T01:10:37.727Z,92.70
2018-09-15T01:13:05.913Z,93.10
2018-09-15T01:15:34.126Z,92.90
2018-09-15T01:18:02.379Z,92.70
2018-09-15T01:20:30.670Z,93.00
2018-09-15T01:22:58.947Z,93.10
2018-09-15T01:25:27.214Z,93.40
2018-09-15T01:27:55.391Z,94.00
2018-09-15T01:30:23.703Z,93.40
2018-09-15T01:32:51.894Z,93.30
2018-09-15T01:35:20.190Z,92.60
2018-09-15T01:37:48.371Z,92.40
2018-09-15T01:40:16.563Z,92.20
2018-09-15T01:42:44.852Z,92.10
2018-09-15T01:45:13.027Z,92.00
2018-09-15T01:47:41.326Z,92.40
2018-09-15T01:50:09.579Z,92.40
2018-09-15T01:53:41.034Z,92.40
2018-09-15T01:56:09.457Z,91.60
2018-09-15T01:58:37.631Z,92.10
2018-09-15T02:01:05.843Z,92.10
2018-09-15T02:03:34.028Z,91.60
2018-09-15T02:06:02.319Z,93.40
2018-09-15T02:08:30.599Z,91.60
2018-09-15T02:10:58.819Z,91.90
2018-09-15T02:13:27.037Z,92.00
2018-09-15T02:15:55.206Z,91.80
2018-09-15T02:18:23.483Z,92.20
2018-09-15T02:20:51.672Z,92.20
2018-09-15T02:23:19.867Z,92.00
2018-09-15T02:25:48.150Z,91.60
2018-09-15T02:28:16.353Z,91.90
2018-09-15T02:30:44.569Z,91.70
2018-09-15T02:33:12.859Z,92.00
2018-09-15T02:35:41.099Z,91.90
2018-09-15T02:38:09.445Z,91.80
2018-09-15T02:40:37.662Z,91.70
2018-09-15T02:43:05.967Z,91.80
2018-09-15T02:45:34.215Z,91.30
2018-09-15T02:48:02.428Z,91.40
2018-09-15T02:50:30.634Z,91.60
2018-09-15T02:52:58.987Z,92.00
2018-09-15T02:55:27.221Z,92.40
2018-09-15T02:57:55.491Z,92.40
2018-09-15T03:00:23.680Z,92.20
2018-09-15T03:02:51.947Z,91.70
2018-09-15T03:05:20.150Z,91.60
2018-09-15T03:07:48.419Z,91.60
2018-09-15T03:12:44.544Z,92.00
2018-09-15T03:15:12.819Z,92.10
2018-09-15T03:17:41.015Z,92.50
2018-09-15T03:20:09.248Z,92.60
2018-09-15T03:22:37.483Z,92.50
2018-09-15T03:25:06.493Z,92.60
2018-09-15T03:27:34.736Z,92.40
2018-09-15T03:30:02.976Z,92.30
2018-09-15T03:32:31.176Z,92.10
2018-09-15T03:34:59.995Z,92.20
2018-09-15T03:37:28.286Z,92.20
2018-09-15T03:39:56.487Z,92.40
2018-09-15T03:42:24.728Z,92.50
2018-09-15T03:44:52.855Z,92.40
2018-09-15T03:47:21.045Z,92.70
2018-09-15T03:49:49.286Z,92.70
2018-09-15T03:52:17.478Z,92.60
2018-09-15T03:54:45.663Z,92.30
2018-09-15T03:57:13.890Z,92.60
2018-09-15T03:59:42.091Z,92.60
2018-09-15T04:02:10.288Z,92.90
2018-09-15T04:04:38.608Z,93.00
2018-09-15T04:07:06.830Z,93.00
2018-09-15T04:09:35.031Z,95.90
2018-09-15T04:12:03.225Z,93.90
2018-09-15T04:14:31.420Z,93.00
2018-09-15T04:21:55.539Z,93.50
2018-09-15T04:24:23.733Z,93.70
2018-09-15T04:26:51.919Z,93.50
2018-09-15T04:29:20.176Z,93.40
2018-09-15T04:31:48.406Z,93.20
2018-09-15T04:34:16.711Z,93.20
2018-09-15T04:36:44.892Z,93.40
2018-09-15T04:39:13.277Z,93.50
2018-09-15T04:41:41.972Z,93.90
2018-09-15T04:44:10.123Z,93.70
2018-09-15T04:46:38.343Z,93.60
2018-09-15T04:49:06.570Z,93.80
2018-09-15T04:51:41.406Z,93.90
2018-09-15T04:54:09.626Z,93.80
2018-09-15T04:56:37.815Z,94.20
2018-09-15T04:59:06.050Z,94.20
2018-09-15T05:01:34.268Z,93.80
2018-09-15T05:04:02.500Z,94.50
2018-09-15T05:06:30.819Z,94.20
2018-09-15T05:08:58.986Z,94.10
2018-09-15T05:11:27.182Z,94.00
2018-09-15T05:13:55.371Z,93.90
2018-09-15T05:16:23.599Z,93.80
2018-09-15T05:18:51.827Z,93.60
2018-09-15T05:26:15.988Z,93.70
2018-09-15T05:28:44.172Z,94.50
2018-09-15T05:31:12.399Z,94.50
2018-09-15T05:33:40.692Z,94.00
2018-09-15T05:36:08.972Z,94.30
2018-09-15T05:41:05.115Z,93.50
2018-09-15T05:43:33.302Z,93.50
2018-09-15T05:46:01.494Z,93.90
2018-09-15T05:48:29.727Z,93.90
2018-09-15T05:50:57.999Z,93.80
2018-09-15T05:53:26.252Z,93.90
2018-09-15T05:55:54.522Z,94.00
2018-09-15T05:58:22.867Z,94.40
2018-09-15T06:00:51.967Z,94.50
2018-09-15T06:03:20.203Z,94.60
2018-09-15T06:05:48.920Z,94.70
2018-09-15T06:08:17.232Z,95.10
2018-09-15T06:10:45.616Z,94.80
2018-09-15T06:13:14.218Z,94.80
2018-09-15T06:15:42.667Z,95.00
2018-09-15T06:18:10.911Z,95.20
2018-09-15T06:20:39.202Z,98.80
2018-09-15T06:23:07.788Z,95.50
2018-09-15T06:28:04.076Z,95.70
2018-09-15T06:30:32.480Z,96.10
2018-09-15T06:33:00.798Z,96.30
2018-09-15T06:35:29.048Z,96.10
2018-09-15T06:37:57.256Z,95.90
2018-09-15T06:40:25.499Z,96.00
2018-09-15T06:42:53.895Z,95.90
2018-09-15T06:45:22.150Z,95.80
2018-09-15T06:47:50.434Z,95.80
2018-09-15T06:50:18.655Z,95.90
2018-09-15T06:52:46.851Z,96.00
2018-09-15T06:55:15.154Z,96.00
2018-09-15T06:57:43.399Z,95.80
2018-09-15T07:00:11.744Z,95.90
2018-09-15T07:02:39.962Z,96.10
2018-09-15T07:05:08.172Z,96.00
2018-09-15T07:07:36.380Z,96.10
2018-09-15T07:10:04.679Z,96.40
2018-09-15T07:12:32.993Z,95.90
2018-09-15T07:15:01.236Z,96.70
2018-09-15T07:17:29.528Z,95.90
2018-09-15T07:19:57.795Z,98.10
2018-09-15T07:22:25.995Z,95.80
2018-09-15T07:27:22.290Z,95.80
2018-09-15T07:29:50.662Z,95.90
2018-09-15T07:32:19.092Z,96.00
2018-09-15T07:34:47.456Z,96.10
2018-09-15T07:37:15.613Z,96.30
2018-09-15T07:39:43.839Z,95.50
2018-09-15T07:42:12.043Z,95.50
2018-09-15T07:44:40.408Z,95.10
2018-09-15T07:47:08.664Z,95.10
2018-09-15T07:49:37.011Z,95.20
2018-09-15T07:52:05.228Z,95.30
2018-09-15T07:54:33.447Z,95.10
2018-09-15T07:57:01.666Z,94.60
2018-09-15T07:59:29.854Z,94.60
2018-09-15T08:01:58.147Z,94.70
2018-09-15T08:04:26.508Z,94.80
2018-09-15T08:06:54.887Z,94.90
2018-09-15T08:09:23.140Z,94.80
2018-09-15T08:11:51.415Z,94.50
2018-09-15T08:14:19.636Z,94.40
2018-09-15T08:16:47.914Z,93.90
2018-09-15T08:19:16.130Z,94.20
2018-09-15T08:21:44.421Z,93.80
2018-09-15T08:24:12.692Z,93.80
2018-09-15T08:29:08.979Z,94.00
2018-09-15T08:31:37.283Z,94.30
2018-09-15T08:34:05.569Z,94.10
2018-09-15T08:36:33.919Z,94.00
2018-09-15T08:39:02.148Z,94.30
2018-09-15T08:41:30.620Z,94.00
2018-09-15T08:43:58.869Z,93.70
2018-09-15T08:46:27.120Z,93.90
2018-09-15T08:48:55.391Z,93.90
2018-09-15T08:51:23.685Z,94.10
2018-09-15T08:53:51.893Z,94.20
2018-09-15T08:56:20.201Z,94.20
2018-09-15T08:58:48.400Z,94.60
2018-09-15T09:01:16.623Z,94.30
2018-09-15T09:03:44.920Z,94.10
2018-09-15T09:06:19.932Z,93.90
2018-09-15T09:08:48.175Z,93.90
2018-09-15T09:11:16.546Z,94.10
2018-09-15T09:13:44.936Z,94.40
2018-09-15T09:16:13.193Z,94.60
2018-09-15T09:18:41.475Z,94.40
2018-09-15T09:21:09.747Z,94.50
2018-09-15T09:23:38.020Z,94.70
2018-09-15T09:26:06.396Z,95.40
2018-09-15T09:28:34.843Z,94.20
2018-09-15T09:31:03.108Z,94.20
2018-09-15T09:33:31.488Z,95.30
2018-09-15T09:35:59.849Z,95.10
2018-09-15T09:38:28.150Z,94.90
2018-09-15T09:40:57.368Z,94.90
2018-09-15T09:43:25.763Z,95.10
2018-09-15T09:45:54.043Z,94.30
2018-09-15T09:48:22.416Z,94.30
2018-09-15T09:50:50.609Z,94.40
2018-09-15T09:53:18.873Z,94.10
2018-09-15T09:55:47.260Z,94.10
2018-09-15T09:58:15.516Z,94.10
2018-09-15T10:00:49.263Z,94.00
2018-09-15T10:03:17.528Z,94.40
2018-09-15T10:05:45.800Z,94.10
2018-09-15T10:08:14.006Z,94.20
2018-09-15T10:10:42.211Z,94.20
2018-09-15T10:13:10.521Z,93.00
2018-09-15T10:15:38.779Z,93.10
2018-09-15T10:18:07.114Z,93.70
2018-09-15T10:20:35.337Z,94.00
2018-09-15T10:23:03.552Z,98.90
2018-09-15T10:25:31.749Z,92.00
2018-09-15T10:27:59.958Z,92.40
2018-09-15T10:30:28.207Z,95.20
2018-09-15T10:37:52.563Z,91.80
2018-09-15T10:40:20.873Z,90.80
2018-09-15T10:42:49.099Z,90.00
2018-09-15T10:45:17.311Z,90.90
2018-09-15T10:47:45.611Z,90.90
2018-09-15T10:50:13.918Z,91.10
2018-09-15T10:52:42.132Z,91.30
2018-09-15T10:55:10.382Z,91.20
2018-09-15T10:57:38.648Z,91.70
2018-09-15T11:00:06.991Z,91.80
2018-09-15T11:02:35.304Z,91.90
2018-09-15T11:05:03.524Z,91.00
2018-09-15T11:07:31.740Z,89.90
2018-09-15T11:10:00.042Z,90.20
2018-09-15T11:12:28.305Z,88.90
2018-09-15T11:14:56.512Z,89.20
2018-09-15T11:17:24.795Z,88.40
2018-09-15T11:19:53.070Z,88.40
2018-09-15T11:22:21.291Z,86.90
2018-09-15T11:24:49.487Z,85.50
2018-09-15T11:27:17.722Z,82.90
2018-09-15T11:29:45.924Z,89.10
2018-09-15T11:32:14.258Z,82.30
2018-09-15T11:34:42.496Z,82.00
2018-09-15T11:37:10.828Z,80.10
2018-09-15T11:39:39.029Z,80.60
2018-09-15T11:42:07.232Z,77.60
2018-09-15T11:44:35.434Z,79.60
2018-09-15T11:47:03.718Z,80.80
2018-09-15T11:49:31.924Z,81.00
2018-09-15T11:52:00.170Z,78.80
2018-09-15T11:54:28.360Z,77.50
2018-09-15T11:56:56.564Z,76.70
2018-09-15T11:59:24.843Z,74.50
2018-09-15T12:01:53.322Z,73.50
2018-09-15T12:04:21.590Z,74.20
2018-09-15T12:06:49.932Z,73.90
2018-09-15T12:09:18.124Z,72.70
2018-09-15T12:11:46.331Z,72.40
2018-09-15T12:14:14.581Z,71.90
2018-09-15T12:16:42.915Z,70.20
2018-09-15T12:19:11.103Z,70.60
2018-09-15T12:21:39.472Z,73.70
2018-09-15T12:24:07.622Z,73.30
2018-09-15T12:26:35.880Z,70.30
2018-09-15T12:29:04.136Z,73.40
2018-09-15T12:34:00.635Z,71.40
2018-09-15T12:38:56.935Z,70.00
2018-09-15T12:41:25.138Z,70.00
2018-09-15T12:43:53.360Z,70.60
2018-09-15T12:46:21.755Z,70.00
2018-09-15T12:48:50.776Z,70.40
2018-09-15T12:51:19.031Z,69.20
2018-09-15T12:53:47.260Z,70.40
2018-09-15T12:56:15.471Z,70.90
2018-09-15T12:58:43.752Z,70.70
2018-09-15T13:01:12.071Z,71.50
2018-09-15T13:03:40.394Z,69.80
2018-09-15T13:06:08.586Z,70.70
2018-09-15T13:08:36.853Z,71.00
2018-09-15T13:11:05.041Z,70.40
2018-09-15T13:13:33.344Z,71.40
2018-09-15T13:16:01.636Z,71.20
2018-09-15T13:18:29.919Z,71.30
2018-09-15T13:20:58.126Z,69.90
2018-09-15T13:23:26.328Z,69.00
2018-09-15T13:25:54.601Z,69.20
2018-09-15T13:28:29.523Z,68.50
2018-09-15T13:30:57.798Z,67.10
2018-09-15T13:33:26.004Z,71.30
2018-09-15T13:35:54.231Z,69.60
2018-09-15T13:38:22.492Z,68.60
2018-09-15T13:43:18.699Z,69.40
2018-09-15T13:45:46.931Z,69.80
2018-09-15T13:48:15.199Z,69.10
2018-09-15T13:50:43.394Z,69.70
2018-09-15T13:53:11.666Z,69.00
2018-09-15T13:55:40.004Z,69.10
2018-09-15T13:58:08.268Z,69.90
2018-09-15T14:00:36.459Z,69.50
2018-09-15T14:03:04.812Z,68.60
2018-09-15T14:05:33.018Z,67.60
2018-09-15T14:08:01.307Z,68.50
2018-09-15T14:10:29.696Z,68.20
2018-09-15T14:12:57.946Z,68.80
2018-09-15T14:15:26.128Z,68.00
2018-09-15T14:17:54.338Z,68.80
2018-09-15T14:20:22.592Z,68.30
2018-09-15T14:22:50.820Z,68.30
2018-09-15T14:25:20.063Z,68.60
2018-09-15T14:27:48.305Z,68.30
2018-09-15T14:30:16.604Z,69.20
2018-09-15T14:32:44.896Z,69.20
2018-09-15T14:35:13.091Z,68.00
2018-09-15T14:37:41.291Z,69.10
2018-09-15T14:40:09.487Z,66.60
2018-09-15T14:47:33.866Z,67.40
2018-09-15T14:50:02.100Z,66.50
2018-09-15T14:52:30.303Z,67.20
2018-09-15T14:54:58.612Z,67.00
2018-09-15T14:57:26.888Z,67.40
2018-09-15T14:59:55.171Z,68.20
2018-09-15T15:02:23.371Z,68.80
2018-09-15T15:04:51.564Z,67.80
2018-09-15T15:07:19.796Z,66.70
2018-09-15T15:09:47.940Z,66.20
2018-09-15T15:12:16.196Z,66.90
2018-09-15T15:14:44.429Z,67.10
2018-09-15T15:17:12.675Z,66.90
2018-09-15T15:19:40.979Z,67.50
2018-09-15T15:22:09.128Z,68.40
2018-09-15T15:24:37.369Z,68.80
2018-09-15T15:27:05.736Z,67.80
2018-09-15T15:29:34.029Z,68.30
2018-09-15T15:32:02.237Z,69.60
2018-09-15T15:34:30.510Z,69.40
2018-09-15T15:41:54.623Z,70.70
2018-09-15T15:46:50.832Z,70.00
2018-09-15T15:49:19.124Z,70.90
2018-09-15T15:51:47.632Z,70.40
2018-09-15T15:54:15.857Z,71.30
2018-09-15T15:56:44.116Z,72.20
2018-09-15T15:59:12.442Z,72.40
2018-09-15T16:01:40.619Z,72.30
2018-09-15T16:04:08.823Z,72.60
2018-09-15T16:06:37.083Z,72.60
2018-09-15T16:09:07.398Z,72.30
2018-09-15T16:11:35.875Z,71.10
2018-09-15T16:14:04.089Z,71.80
2018-09-15T16:16:32.290Z,71.60
2018-09-15T16:19:00.603Z,72.20
2018-09-15T16:21:28.811Z,71.50
2018-09-15T16:23:57.112Z,74.20
2018-09-15T16:26:25.367Z,70.40
2018-09-15T16:28:53.646Z,71.40
2018-09-15T16:31:21.850Z,70.80
2018-09-15T16:33:50.178Z,71.70
2018-09-15T16:41:14.363Z,71.60
2018-09-15T16:44:46.143Z,73.30
2018-09-15T16:47:14.346Z,73.00
2018-09-15T16:49:42.648Z,74.00
2018-09-15T16:52:10.885Z,74.30
2018-09-15T16:54:39.096Z,74.70
2018-09-15T16:57:07.322Z,75.00
2018-09-15T16:59:35.615Z,75.00
2018-09-15T17:04:31.848Z,75.30
2018-09-15T17:07:00.044Z,77.00
2018-09-15T17:09:28.359Z,76.80
2018-09-15T17:11:56.559Z,77.60
2018-09-15T17:14:27.783Z,78.30
2018-09-15T17:16:56.023Z,76.90
2018-09-15T17:19:24.586Z,77.80
2018-09-15T17:21:52.895Z,78.30
2018-09-15T17:24:21.099Z,78.70
2018-09-15T17:26:49.314Z,78.80
2018-09-15T17:29:17.524Z,79.40
2018-09-15T17:31:45.775Z,79.70
2018-09-15T17:34:13.994Z,79.90
2018-09-15T17:36:42.311Z,80.50
2018-09-15T17:39:11.897Z,80.80
2018-09-15T17:41:40.099Z,81.10
2018-09-15T17:44:08.445Z,81.10
2018-09-15T17:46:36.760Z,82.00
2018-09-15T17:49:05.096Z,82.70
2018-09-15T17:51:33.367Z,83.40
2018-09-15T17:54:01.544Z,83.50
2018-09-15T17:56:29.756Z,90.00
2018-09-15T17:58:57.958Z,84.00
2018-09-15T18:01:26.227Z,85.80
2018-09-15T18:03:54.512Z,85.20
2018-09-15T18:06:22.731Z,85.20
2018-09-15T18:08:51.624Z,85.80
2018-09-15T18:11:19.835Z,85.50
2018-09-15T18:13:48.327Z,86.30
2018-09-15T18:16:16.659Z,85.80
2018-09-15T18:18:44.981Z,87.70
2018-09-15T18:21:13.184Z,87.30
2018-09-15T18:23:41.412Z,88.00
2018-09-15T18:26:09.679Z,88.20
2018-09-15T18:28:37.875Z,88.00
2018-09-15T18:31:06.231Z,88.40
2018-09-15T18:33:34.613Z,88.20
2018-09-15T18:36:03.083Z,87.80
2018-09-15T18:38:31.283Z,88.00
2018-09-15T18:40:59.576Z,88.40
2018-09-15T18:43:27.860Z,88.60
2018-09-15T18:45:56.187Z,88.80
2018-09-15T18:48:24.407Z,89.20
2018-09-15T18:50:52.636Z,89.30
2018-09-15T18:53:20.820Z,88.50
2018-09-15T18:55:49.056Z,88.50
2018-09-15T18:58:17.283Z,89.40
2018-09-15T19:00:45.660Z,89.00
2018-09-15T19:03:14.904Z,89.20
2018-09-15T19:05:43.598Z,89.60
2018-09-15T19:10:39.964Z,89.30
2018-09-15T19:13:08.309Z,90.10
2018-09-15T19:15:36.560Z,89.40
2018-09-15T19:18:04.819Z,89.50
2018-09-15T19:20:33.032Z,89.60
2018-09-15T19:23:01.320Z,89.20
2018-09-15T19:25:29.805Z,90.00
2018-09-15T19:27:58.082Z,89.40
2018-09-15T19:30:26.303Z,89.40
2018-09-15T19:32:54.523Z,89.20
2018-09-15T19:35:22.764Z,88.90
2018-09-15T19:37:50.983Z,89.00
2018-09-15T19:40:19.215Z,88.80
2018-09-15T19:42:47.443Z,89.00
2018-09-15T19:45:15.663Z,89.20
2018-09-15T19:47:43.872Z,89.00
2018-09-15T19:50:12.091Z,88.10
2018-09-15T19:52:40.299Z,87.60
2018-09-15T19:55:08.517Z,87.40
2018-09-15T19:57:36.876Z,87.30
2018-09-15T20:00:05.128Z,86.70
2018-09-15T20:02:33.589Z,86.80
2018-09-15T20:05:01.887Z,87.50
2018-09-15T20:07:30.180Z,87.50
2018-09-15T20:09:58.442Z,87.30
2018-09-15T20:12:26.687Z,87.80
2018-09-15T20:14:54.968Z,88.50
2018-09-15T20:17:22.188Z,89.20
2018-09-15T20:19:49.504Z,89.30
2018-09-15T20:22:17.827Z,89.20
2018-09-15T20:24:46.253Z,89.40
2018-09-15T20:27:14.588Z,89.60
2018-09-15T20:29:42.833Z,89.10
2018-09-15T20:32:11.100Z,89.10
2018-09-15T20:34:39.322Z,88.90
2018-09-15T20:37:07.752Z,88.70
2018-09-15T20:39:36.055Z,88.90
2018-09-15T20:42:04.376Z,89.60
2018-09-15T20:44:32.697Z,90.10
2018-09-15T20:47:01.005Z,90.10
2018-09-15T20:49:29.297Z,90.10
2018-09-15T20:51:57.507Z,90.10
2018-09-15T20:54:25.723Z,90.50
2018-09-15T20:56:54.024Z,90.80
2018-09-15T20:59:22.290Z,91.00
2018-09-15T21:01:50.633Z,90.90
2018-09-15T21:04:19.041Z,90.80
2018-09-15T21:06:47.320Z,91.10
2018-09-15T21:09:15.526Z,91.10
2018-09-15T21:11:43.779Z,91.10
2018-09-15T21:14:12.078Z,90.40
2018-09-15T21:16:40.391Z,90.20
2018-09-15T21:19:08.656Z,90.50
2018-09-15T21:21:36.906Z,90.10
2018-09-15T21:24:05.199Z,88.60
2018-09-15T21:26:33.428Z,89.20
2018-09-15T21:29:01.700Z,89.10
2018-09-15T21:31:30.032Z,88.50
2018-09-15T21:33:58.351Z,87.70
2018-09-15T21:36:26.642Z,87.10
2018-09-15T21:38:54.923Z,86.90
2018-09-15T21:41:23.152Z,86.90
2018-09-15T21:43:51.363Z,86.70
2018-09-15T21:46:19.624Z,86.90
2018-09-15T21:48:47.888Z,86.50
2018-09-15T21:52:40.724Z,87.30
2018-09-15T21:55:08.960Z,87.90
2018-09-15T21:57:37.237Z,88.80
2018-09-15T22:00:08.114Z,89.00
2018-09-15T22:02:36.332Z,90.10
2018-09-15T22:05:04.632Z,90.40
2018-09-15T22:07:32.955Z,90.50
2018-09-15T22:10:01.151Z,90.40
2018-09-15T22:12:29.432Z,90.00
2018-09-15T22:14:57.719Z,90.40
2018-09-15T22:17:26.071Z,90.20
2018-09-15T22:19:54.292Z,90.00
2018-09-15T22:22:22.639Z,89.50
2018-09-15T22:24:50.853Z,88.90
2018-09-15T22:27:19.053Z,89.20
2018-09-15T22:29:47.419Z,89.00
2018-09-15T22:32:15.659Z,89.20
2018-09-15T22:34:43.987Z,88.30
2018-09-15T22:37:12.208Z,88.60
2018-09-15T22:39:40.513Z,89.30
2018-09-15T22:42:08.743Z,87.70
2018-09-15T22:44:37.143Z,88.50
2018-09-15T22:47:05.483Z,87.90
2018-09-15T22:49:33.698Z,87.10
2018-09-15T22:52:01.900Z,85.70
2018-09-15T22:54:30.120Z,86.40
2018-09-15T22:56:58.520Z,86.00
2018-09-15T22:59:26.884Z,86.10
2018-09-15T23:01:55.179Z,85.70
2018-09-15T23:04:23.382Z,85.60
2018-09-15T23:06:51.580Z,86.40
2018-09-15T23:09:19.883Z,86.90
2018-09-15T23:11:48.156Z,87.20
2018-09-15T23:14:16.416Z,87.20
2018-09-15T23:16:44.848Z,86.90
2018-09-15T23:19:13.127Z,86.10
2018-09-15T23:21:41.270Z,84.90
2018-09-15T23:24:09.544Z,85.60
2018-09-15T23:26:37.781Z,85.60
2018-09-15T23:29:06.023Z,85.70
2018-09-15T23:31:34.308Z,85.90
2018-09-15T23:34:02.588Z,86.50
2018-09-15T23:36:30.868Z,87.70
2018-09-15T23:38:59.059Z,92.10
2018-09-15T23:41:27.279Z,87.30
2018-09-15T23:43:55.516Z,87.70
2018-09-15T23:46:23.799Z,88.40
2018-09-15T23:48:52.067Z,87.70
2018-09-15T23:51:20.404Z,88.40
2018-09-15T23:53:48.595Z,87.40
2018-09-15T23:56:16.833Z,89.00
2018-09-15T23:58:45.107Z,87.80
